Keimoes, South Africa
Current Conditions -  °F | °C
As of 2:00 AM on Saturday 29 Nov 2014 (Local Time) from FAUP Reporting Station
Clear Clear  
Wind Chill: 63°   Ceiling: Unl
Heat Index: 63°   Visibility: 6mi
Dew Point: 30°   Wind: 1mph
Humidity: 30%   Direction: 270°W
Pressure: 29.97"   Gusts: NA
Location:  28.71°S, 20.98°E
Report Text: FAUP 290000Z 27001KT CAVOK 17/M01 Q1015 NOSIG
Loading
Personal Weather Stations






























Interactive Weather Map New forecast layout! Learn more

10-Day Weather Forecast

Advertisements
Track Severe Weather on mobile